»·PEaware :: N57247 KLGB-KCRQ

N57247 :: KLGB-KCRQ

FLIGHT INFORMATION

Flight Status: Arrived
Operator: Privately registered:
United States
More flights under this callsign
Pilot: Anonymous 27478 (27478)
Aircraft: MOONEY M-20K/M ENCORE BRAVO
(M20T)
More flights by this aircraft type
Origin: KLGB Long Beach
United States
Destination: KCRQ McClellan-Palomar
United States
More flights between these airports :: More routes between these airports
Route: SLI V64 V363 DANAH V23 OCN
File this flight plan on PilotEdge
Remarks:
Altitude:
(Current/Filed)
4,000ft
Speed:
(Current/Filed)
180kts
Departed: 13-Feb-20 09:08 PM
Arrived: 13-Feb-20 09:54 PM
Distance/Time
Traveled:
60nm/0:46
Distance/Time
To Go:
Arrived

Flight Plot

Page will automatically refresh every two minutes.


Map Options




Map Legend


Flown Route
Filed Route
Departure Airport
Arrival Airport
Navaid (VOR, NDB)
Fix

Horizontal Profiles

Position Reports

Time Latitude Longitude Heading Altitude Ground
Speed
13-Feb-20 20:47 33.812821 -118.151383 44 38ft 0kts
13-Feb-20 20:48 33.812821 -118.151383 44 38ft 0kts
13-Feb-20 20:49 33.812821 -118.151383 44 38ft 0kts
13-Feb-20 20:50 33.812821 -118.151383 44 38ft 0kts
13-Feb-20 20:51 33.812821 -118.151383 44 38ft 0kts
13-Feb-20 20:52 33.812821 -118.151383 44 38ft 0kts
13-Feb-20 20:53 33.812821 -118.151383 44 38ft 0kts
13-Feb-20 20:54 33.812821 -118.151383 44 38ft 0kts
13-Feb-20 20:55 33.812821 -118.151383 44 38ft 0kts
13-Feb-20 20:56 33.812821 -118.151383 44 38ft 0kts
13-Feb-20 20:57 33.812821 -118.151383 44 38ft 0kts
13-Feb-20 20:58 33.812821 -118.151383 44 38ft 0kts
13-Feb-20 20:59 33.812821 -118.151383 44 38ft 0kts
13-Feb-20 21:00 33.812821 -118.151383 44 38ft 0kts
13-Feb-20 21:01 33.812821 -118.151383 44 38ft 0kts
13-Feb-20 21:02 33.813088 -118.148650 89 35ft 18kts
13-Feb-20 21:03 33.813312 -118.148130 15 34ft 0kts
13-Feb-20 21:04 33.813312 -118.148130 15 34ft 0kts
13-Feb-20 21:05 33.813312 -118.148130 15 34ft 0kts
13-Feb-20 21:06 33.813715 -118.148128 347 34ft 19kts
13-Feb-20 21:07 33.812441 -118.168618 265 557ft 85kts
13-Feb-20 21:08 33.799262 -118.190839 210 1668ft 93kts
13-Feb-20 21:09 33.775768 -118.205224 199 2615ft 97kts
13-Feb-20 21:10 33.769061 -118.177206 84 3468ft 107kts
13-Feb-20 21:11 33.774316 -118.141339 82 4169ft 119kts
13-Feb-20 21:12 33.778527 -118.100100 85 4875ft 127kts
13-Feb-20 21:14 33.761516 -118.033104 133 5004ft 164kts
13-Feb-20 21:15 33.756241 -117.959705 66 5004ft 173kts
13-Feb-20 21:16 33.766027 -117.904852 96 5004ft 171kts
13-Feb-20 21:17 33.761689 -117.847996 95 5004ft 170kts
13-Feb-20 21:19 33.760652 -117.791008 98 5000ft 170kts
13-Feb-20 21:20 33.725012 -117.757941 155 5004ft 167kts
13-Feb-20 21:21 33.682110 -117.736248 161 5003ft 167kts
13-Feb-20 21:22 33.637106 -117.726728 171 5004ft 167kts
13-Feb-20 21:23 33.590986 -117.718861 171 5004ft 167kts
13-Feb-20 21:24 33.544978 -117.711192 172 5006ft 167kts
13-Feb-20 21:25 33.498825 -117.703536 172 5007ft 167kts
13-Feb-20 21:26 33.466792 -117.664910 118 5009ft 171kts
13-Feb-20 21:27 33.439996 -117.618094 134 5012ft 172kts
13-Feb-20 21:28 33.405684 -117.578460 134 5012ft 171kts
13-Feb-20 21:29 33.371434 -117.539004 134 5011ft 171kts
13-Feb-20 21:30 33.332954 -117.505704 141 5010ft 171kts
13-Feb-20 21:31 33.299609 -117.474624 140 5003ft 120kts
13-Feb-20 21:32 33.281172 -117.451907 106 5009ft 92kts
13-Feb-20 21:33 33.272495 -117.421404 109 5007ft 100kts
13-Feb-20 21:34 33.262713 -117.389895 109 5006ft 102kts
13-Feb-20 21:35 33.256816 -117.356470 98 5004ft 103kts
13-Feb-20 21:36 33.252145 -117.322437 98 5004ft 103kts
13-Feb-20 21:37 33.247438 -117.288622 99 4976ft 102kts
13-Feb-20 21:38 33.242400 -117.254456 96 4527ft 103kts
13-Feb-20 21:39 33.238763 -117.220201 95 4000ft 102kts
13-Feb-20 21:39 33.236557 -117.190780 95 3593ft 108kts
13-Feb-20 21:40 33.229544 -117.158156 116 3552ft 103kts
13-Feb-20 21:42 33.221883 -117.120233 101 3564ft 97kts
13-Feb-20 21:42 33.216286 -117.093858 102 3571ft 98kts
13-Feb-20 21:43 33.199344 -117.070995 146 3594ft 98kts
13-Feb-20 21:44 33.176615 -117.052750 149 3630ft 98kts
13-Feb-20 21:45 33.152204 -117.038689 191 3621ft 102kts
13-Feb-20 21:46 33.147201 -117.067339 282 3625ft 100kts
13-Feb-20 21:47 33.152187 -117.099459 280 3403ft 99kts
13-Feb-20 21:48 33.151470 -117.131628 263 2978ft 97kts
13-Feb-20 21:49 33.147191 -117.163327 261 2273ft 96kts
13-Feb-20 21:50 33.142107 -117.194488 257 1658ft 95kts
13-Feb-20 21:51 33.136797 -117.225244 259 1080ft 94kts
13-Feb-20 21:52 33.131978 -117.255666 258 628ft 88kts
13-Feb-20 21:53 33.128054 -117.281267 259 333ft 28kts
13-Feb-20 21:54 33.126355 -117.284481 85 333ft 9kts

Navigation Log

Ident Type
Flight plan parsing failed, navigation log unavailable